sensor_id;sensor_type;location;lat;lon;timestamp;pressure;altitude;pressure_sealevel;temperature;humidity
22572;BME280;11452;53.368;14.658;2023-03-04T00:04:39;101002.44;;;4.45;77.84
22572;BME280;11452;53.368;14.658;2023-03-04T00:09:45;101002.44;;;4.45;77.84
22572;BME280;11452;53.368;14.658;2023-03-04T00:14:50;101014.64;;;4.51;77.84
22572;BME280;11452;53.368;14.658;2023-03-04T00:19:56;100985.00;;;4.55;77.71
22572;BME280;11452;53.368;14.658;2023-03-04T00:25:02;101006.32;;;4.65;77.69
22572;BME280;11452;53.368;14.658;2023-03-04T00:30:09;100988.73;;;4.64;77.88
22572;BME280;11452;53.368;14.658;2023-03-04T00:35:16;100984.80;;;4.62;77.68
22572;BME280;11452;53.368;14.658;2023-03-04T00:40:22;100975.58;;;4.61;77.84
22572;BME280;11452;53.368;14.658;2023-03-04T00:45:27;100969.39;;;4.76;77.94
22572;BME280;11452;53.368;14.658;2023-03-04T00:50:33;100958.97;;;4.85;77.95
22572;BME280;11452;53.368;14.658;2023-03-04T00:55:38;100947.88;;;4.87;77.95
22572;BME280;11452;53.368;14.658;2023-03-04T01:00:44;100943.50;;;4.86;77.94
22572;BME280;11452;53.368;14.658;2023-03-04T01:05:50;100918.84;;;4.84;77.99
22572;BME280;11452;53.368;14.658;2023-03-04T01:10:55;100947.71;;;4.93;77.89
22572;BME280;11452;53.368;14.658;2023-03-04T01:16:01;100944.98;;;4.96;77.92
22572;BME280;11452;53.368;14.658;2023-03-04T01:21:07;100927.34;;;4.95;78.14
22572;BME280;11452;53.368;14.658;2023-03-04T01:26:13;100927.22;;;5.00;78.25
22572;BME280;11452;53.368;14.658;2023-03-04T01:31:18;100906.32;;;5.04;78.51
22572;BME280;11452;53.368;14.658;2023-03-04T01:36:24;100901.78;;;4.94;78.00
22572;BME280;11452;53.368;14.658;2023-03-04T01:41:30;100895.55;;;5.10;78.78
22572;BME280;11452;53.368;14.658;2023-03-04T01:46:36;100891.16;;;5.09;78.69
22572;BME280;11452;53.368;14.658;2023-03-04T01:51:45;100882.77;;;5.22;78.77
22572;BME280;11452;53.368;14.658;2023-03-04T01:56:51;100873.91;;;5.23;78.57
22572;BME280;11452;53.368;14.658;2023-03-04T02:01:59;100852.43;;;5.19;78.77
22572;BME280;11452;53.368;14.658;2023-03-04T02:07:05;100840.19;;;5.29;78.97
22572;BME280;11452;53.368;14.658;2023-03-04T02:12:13;100835.25;;;5.31;79.08
22572;BME280;11452;53.368;14.658;2023-03-04T02:17:26;100838.86;;;5.42;79.22
22572;BME280;11452;53.368;14.658;2023-03-04T02:22:34;100833.87;;;5.33;79.08
22572;BME280;11452;53.368;14.658;2023-03-04T02:27:40;100837.45;;;5.32;78.88
22572;BME280;11452;53.368;14.658;2023-03-04T02:32:46;100837.13;;;5.41;79.25
22572;BME280;11452;53.368;14.658;2023-03-04T02:37:52;100832.49;;;5.47;78.90
22572;BME280;11452;53.368;14.658;2023-03-04T02:42:59;100819.60;;;5.50;79.19
22572;BME280;11452;53.368;14.658;2023-03-04T02:48:06;100810.57;;;5.42;79.07
22572;BME280;11452;53.368;14.658;2023-03-04T02:53:12;100813.63;;;5.43;79.18
22572;BME280;11452;53.368;14.658;2023-03-04T02:58:19;100824.13;;;5.46;79.09
22572;BME280;11452;53.368;14.658;2023-03-04T03:03:25;100795.80;;;5.48;79.03
22572;BME280;11452;53.368;14.658;2023-03-04T03:08:31;100797.91;;;5.64;78.96
22572;BME280;11452;53.368;14.658;2023-03-04T03:13:36;100801.73;;;5.68;78.88
22572;BME280;11452;53.368;14.658;2023-03-04T03:18:42;100779.86;;;5.62;78.56
22572;BME280;11452;53.368;14.658;2023-03-04T03:23:48;100810.91;;;5.71;78.68
22572;BME280;11452;53.368;14.658;2023-03-04T03:28:54;100784.91;;;5.69;78.76
22572;BME280;11452;53.368;14.658;2023-03-04T03:33:59;100790.33;;;5.78;78.52
22572;BME280;11452;53.368;14.658;2023-03-04T03:39:05;100794.03;;;5.74;78.35
22572;BME280;11452;53.368;14.658;2023-03-04T03:44:10;100793.03;;;5.76;78.36
22572;BME280;11452;53.368;14.658;2023-03-04T03:49:16;100785.73;;;5.83;78.45
22572;BME280;11452;53.368;14.658;2023-03-04T03:54:21;100778.12;;;5.85;78.56
22572;BME280;11452;53.368;14.658;2023-03-04T03:59:27;100773.05;;;5.93;78.38
22572;BME280;11452;53.368;14.658;2023-03-04T04:04:33;100757.32;;;5.86;78.34
22572;BME280;11452;53.368;14.658;2023-03-04T04:09:38;100752.47;;;5.86;78.55
22572;BME280;11452;53.368;14.658;2023-03-04T04:14:44;100758.06;;;5.92;78.71
22572;BME280;11452;53.368;14.658;2023-03-04T04:19:50;100762.03;;;6.03;78.86
22572;BME280;11452;53.368;14.658;2023-03-04T04:24:55;100756.67;;;6.05;78.82
22572;BME280;11452;53.368;14.658;2023-03-04T04:30:01;100758.22;;;5.99;78.54
22572;BME280;11452;53.368;14.658;2023-03-04T04:35:08;100757.19;;;6.03;78.83
22572;BME280;11452;53.368;14.658;2023-03-04T04:40:14;100759.16;;;6.09;78.86
22572;BME280;11452;53.368;14.658;2023-03-04T04:45:20;100757.53;;;6.05;78.66
22572;BME280;11452;53.368;14.658;2023-03-04T04:50:26;100749.88;;;6.09;78.75
22572;BME280;11452;53.368;14.658;2023-03-04T04:55:34;100753.56;;;6.05;78.96
22572;BME280;11452;53.368;14.658;2023-03-04T05:00:40;100755.23;;;6.08;78.79
22572;BME280;11452;53.368;14.658;2023-03-04T05:05:45;100751.58;;;5.99;78.70
22572;BME280;11452;53.368;14.658;2023-03-04T05:10:51;100756.56;;;6.08;79.19
22572;BME280;11452;53.368;14.658;2023-03-04T05:15:57;100752.33;;;6.14;79.11
22572;BME280;11452;53.368;14.658;2023-03-04T05:21:04;100746.36;;;6.09;78.82
22572;BME280;11452;53.368;14.658;2023-03-04T05:26:12;100759.11;;;6.11;78.55
22572;BME280;11452;53.368;14.658;2023-03-04T05:31:18;100749.91;;;6.19;78.92
22572;BME280;11452;53.368;14.658;2023-03-04T05:36:24;100761.81;;;6.09;78.64
22572;BME280;11452;53.368;14.658;2023-03-04T05:41:29;100761.30;;;6.11;78.50
22572;BME280;11452;53.368;14.658;2023-03-04T05:46:35;100764.00;;;6.10;78.83
22572;BME280;11452;53.368;14.658;2023-03-04T05:51:40;100764.27;;;6.14;78.46
22572;BME280;11452;53.368;14.658;2023-03-04T05:56:46;100750.33;;;6.09;78.46
22572;BME280;11452;53.368;14.658;2023-03-04T06:01:51;100744.09;;;6.21;78.56
22572;BME280;11452;53.368;14.658;2023-03-04T06:06:57;100756.33;;;6.25;78.23
22572;BME280;11452;53.368;14.658;2023-03-04T06:12:03;100757.52;;;6.17;78.35
22572;BME280;11452;53.368;14.658;2023-03-04T06:17:08;100757.88;;;6.19;78.51
22572;BME280;11452;53.368;14.658;2023-03-04T06:22:14;100755.03;;;6.36;78.37
22572;BME280;11452;53.368;14.658;2023-03-04T06:27:19;100750.30;;;6.32;78.01
22572;BME280;11452;53.368;14.658;2023-03-04T06:32:25;100748.71;;;6.28;78.12
22572;BME280;11452;53.368;14.658;2023-03-04T06:37:30;100750.56;;;6.26;78.13
22572;BME280;11452;53.368;14.658;2023-03-04T06:42:36;100767.75;;;6.28;78.17
22572;BME280;11452;53.368;14.658;2023-03-04T06:47:43;100764.44;;;6.33;78.35
22572;BME280;11452;53.368;14.658;2023-03-04T06:52:48;100766.37;;;6.29;78.71
22572;BME280;11452;53.368;14.658;2023-03-04T06:57:54;100777.96;;;6.27;78.83
22572;BME280;11452;53.368;14.658;2023-03-04T07:02:59;100766.13;;;6.23;78.98
22572;BME280;11452;53.368;14.658;2023-03-04T07:08:05;100772.06;;;6.18;79.31
22572;BME280;11452;53.368;14.658;2023-03-04T07:13:10;100767.80;;;6.26;79.69
22572;BME280;11452;53.368;14.658;2023-03-04T07:18:16;100769.48;;;6.29;79.63
22572;BME280;11452;53.368;14.658;2023-03-04T07:23:22;100766.63;;;6.33;79.76
22572;BME280;11452;53.368;14.658;2023-03-04T07:28:27;100772.14;;;6.29;79.72
22572;BME280;11452;53.368;14.658;2023-03-04T07:33:33;100768.77;;;6.35;80.00
22572;BME280;11452;53.368;14.658;2023-03-04T07:38:38;100771.38;;;6.25;80.34
22572;BME280;11452;53.368;14.658;2023-03-04T07:43:44;100772.95;;;6.31;80.32
22572;BME280;11452;53.368;14.658;2023-03-04T07:48:49;100776.52;;;6.30;80.57
22572;BME280;11452;53.368;14.658;2023-03-04T07:53:59;100772.95;;;6.31;81.17
22572;BME280;11452;53.368;14.658;2023-03-04T07:59:06;100777.55;;;6.49;81.29
22572;BME280;11452;53.368;14.658;2023-03-04T08:04:11;100778.44;;;6.59;80.46
22572;BME280;11452;53.368;14.658;2023-03-04T08:09:17;100772.87;;;6.44;80.11
22572;BME280;11452;53.368;14.658;2023-03-04T08:14:25;100775.12;;;6.43;80.35
22572;BME280;11452;53.368;14.658;2023-03-04T08:19:30;100775.06;;;6.44;80.45
22572;BME280;11452;53.368;14.658;2023-03-04T08:24:36;100778.00;;;6.37;79.59
22572;BME280;11452;53.368;14.658;2023-03-04T08:29:41;100768.77;;;6.35;79.44
22572;BME280;11452;53.368;14.658;2023-03-04T08:34:47;100776.21;;;6.37;78.94
22572;BME280;11452;53.368;14.658;2023-03-04T08:39:53;100787.88;;;6.21;77.49
22572;BME280;11452;53.368;14.658;2023-03-04T08:44:58;100784.98;;;6.39;77.39
22572;BME280;11452;53.368;14.658;2023-03-04T08:50:05;100774.75;;;6.52;76.99
22572;BME280;11452;53.368;14.658;2023-03-04T08:55:11;100771.41;;;6.58;76.31
22572;BME280;11452;53.368;14.658;2023-03-04T09:00:17;100763.20;;;6.65;76.00
22572;BME280;11452;53.368;14.658;2023-03-04T09:05:24;100768.02;;;6.77;75.97
22572;BME280;11452;53.368;14.658;2023-03-04T09:10:30;100777.00;;;6.63;75.27
22572;BME280;11452;53.368;14.658;2023-03-04T09:15:36;100775.96;;;6.67;75.51
22572;BME280;11452;53.368;14.658;2023-03-04T09:20:43;100777.86;;;6.63;74.77
22572;BME280;11452;53.368;14.658;2023-03-04T09:25:49;100781.92;;;6.83;75.22
22572;BME280;11452;53.368;14.658;2023-03-04T09:30:54;100788.56;;;6.83;74.65
22572;BME280;11452;53.368;14.658;2023-03-04T09:36:00;100781.77;;;6.98;74.48
22572;BME280;11452;53.368;14.658;2023-03-04T09:41:17;100789.78;;;6.86;73.00
22572;BME280;11452;53.368;14.658;2023-03-04T09:46:31;100814.05;;;6.87;73.07
22572;BME280;11452;53.368;14.658;2023-03-04T10:14:01;100814.38;;;6.80;71.52
22572;BME280;11452;53.368;14.658;2023-03-04T10:19:04;100809.23;;;6.75;71.61
22572;BME280;11452;53.368;14.658;2023-03-04T10:24:13;100812.27;;;6.88;71.82
22572;BME280;11452;53.368;14.658;2023-03-04T10:29:23;100827.73;;;7.00;71.10
22572;BME280;11452;53.368;14.658;2023-03-04T10:34:28;100830.09;;;6.86;70.61
22572;BME280;11452;53.368;14.658;2023-03-04T10:39:37;100822.66;;;6.94;70.86
22572;BME280;11452;53.368;14.658;2023-03-04T10:49:59;100834.07;;;6.86;70.19
22572;BME280;11452;53.368;14.658;2023-03-04T10:55:18;100847.72;;;6.87;69.73
22572;BME280;11452;53.368;14.658;2023-03-04T11:00:32;100838.05;;;6.74;70.32
22572;BME280;11452;53.368;14.658;2023-03-04T11:05:35;100869.67;;;6.92;70.86
22572;BME280;11452;53.368;14.658;2023-03-04T11:10:41;100841.31;;;6.92;70.65
22572;BME280;11452;53.368;14.658;2023-03-04T11:15:55;100830.34;;;6.90;70.10
22572;BME280;11452;53.368;14.658;2023-03-04T11:21:02;100810.81;;;7.03;70.22
22572;BME280;11452;53.368;14.658;2023-03-04T11:26:12;100813.00;;;7.35;69.81
22572;BME280;11452;53.368;14.658;2023-03-04T11:31:22;100820.14;;;7.55;68.94
22572;BME280;11452;53.368;14.658;2023-03-04T11:41:46;100864.09;;;7.32;67.35
22572;BME280;11452;53.368;14.658;2023-03-04T12:03:20;100903.55;;;5.21;68.08
22572;BME280;11452;53.368;14.658;2023-03-04T12:08:38;100913.70;;;4.94;68.92
22572;BME280;11452;53.368;14.658;2023-03-04T12:19:24;100899.03;;;4.68;70.23
22572;BME280;11452;53.368;14.658;2023-03-04T12:46:34;100888.36;;;5.68;70.59
22572;BME280;11452;53.368;14.658;2023-03-04T12:51:35;100896.95;;;5.89;70.28
22572;BME280;11452;53.368;14.658;2023-03-04T12:56:45;100893.60;;;6.09;69.98
22572;BME280;11452;53.368;14.658;2023-03-04T13:07:13;100913.16;;;6.18;68.66
22572;BME280;11452;53.368;14.658;2023-03-04T13:12:21;100901.17;;;6.19;67.79
22572;BME280;11452;53.368;14.658;2023-03-04T13:28:25;100907.17;;;6.00;64.28
22572;BME280;11452;53.368;14.658;2023-03-04T13:33:44;100914.36;;;5.96;62.71
22572;BME280;11452;53.368;14.658;2023-03-04T13:38:56;100910.81;;;6.22;62.79
22572;BME280;11452;53.368;14.658;2023-03-04T13:44:05;100910.66;;;6.13;61.56
22572;BME280;11452;53.368;14.658;2023-03-04T13:49:13;100920.81;;;6.27;61.79
22572;BME280;11452;53.368;14.658;2023-03-04T13:54:26;100922.59;;;6.13;59.30
22572;BME280;11452;53.368;14.658;2023-03-04T13:59:45;100933.22;;;6.13;58.21
22572;BME280;11452;53.368;14.658;2023-03-04T14:05:00;100934.13;;;6.12;57.15
22572;BME280;11452;53.368;14.658;2023-03-04T14:15:21;100933.45;;;7.25;54.77
22572;BME280;11452;53.368;14.658;2023-03-04T14:20:35;100932.34;;;6.13;51.45
22572;BME280;11452;53.368;14.658;2023-03-04T14:25:41;100935.52;;;5.84;53.15
22572;BME280;11452;53.368;14.658;2023-03-04T14:30:54;100936.68;;;5.90;52.81
22572;BME280;11452;53.368;14.658;2023-03-04T14:36:01;100940.00;;;5.82;52.14
22572;BME280;11452;53.368;14.658;2023-03-04T14:41:23;100942.13;;;5.58;50.46
22572;BME280;11452;53.368;14.658;2023-03-04T14:46:31;100936.82;;;5.45;50.54
22572;BME280;11452;53.368;14.658;2023-03-04T14:51:49;100926.44;;;5.78;51.29
22572;BME280;11452;53.368;14.658;2023-03-04T14:56:45;100924.50;;;5.83;50.50
22572;BME280;11452;53.368;14.658;2023-03-04T15:01:50;100919.01;;;6.03;51.12
22572;BME280;11452;53.368;14.658;2023-03-04T15:06:56;100920.95;;;5.98;49.12
22572;BME280;11452;53.368;14.658;2023-03-04T15:12:05;100920.11;;;5.82;49.36
22572;BME280;11452;53.368;14.658;2023-03-04T15:17:34;100920.44;;;5.73;48.79
22572;BME280;11452;53.368;14.658;2023-03-04T15:27:57;100930.78;;;5.54;48.31
22572;BME280;11452;53.368;14.658;2023-03-04T15:33:08;100915.83;;;5.78;48.85
22572;BME280;11452;53.368;14.658;2023-03-04T15:38:13;100908.51;;;5.73;48.43
22572;BME280;11452;53.368;14.658;2023-03-04T15:43:20;100910.89;;;5.68;48.21
22572;BME280;11452;53.368;14.658;2023-03-04T15:48:26;100915.02;;;5.63;47.91
22572;BME280;11452;53.368;14.658;2023-03-04T15:53:47;100905.65;;;5.53;47.87
22572;BME280;11452;53.368;14.658;2023-03-04T15:58:55;100913.23;;;5.64;47.85
22572;BME280;11452;53.368;14.658;2023-03-04T16:04:01;100916.03;;;5.59;47.81
22572;BME280;11452;53.368;14.658;2023-03-04T16:09:09;100904.97;;;5.86;47.97
22572;BME280;11452;53.368;14.658;2023-03-04T16:14:17;100914.25;;;5.60;46.76
22572;BME280;11452;53.368;14.658;2023-03-04T16:19:22;100911.23;;;5.44;46.88
22572;BME280;11452;53.368;14.658;2023-03-04T16:24:30;100908.75;;;5.52;47.25
22572;BME280;11452;53.368;14.658;2023-03-04T16:29:37;100914.70;;;5.46;46.89
22572;BME280;11452;53.368;14.658;2023-03-04T16:34:42;100919.78;;;5.39;46.65
22572;BME280;11452;53.368;14.658;2023-03-04T16:39:48;100920.48;;;5.17;46.75
22572;BME280;11452;53.368;14.658;2023-03-04T16:44:55;100927.92;;;5.05;46.89
22572;BME280;11452;53.368;14.658;2023-03-04T16:50:00;100926.98;;;4.93;46.68
22572;BME280;11452;53.368;14.658;2023-03-04T16:55:09;100931.66;;;4.83;46.93
22572;BME280;11452;53.368;14.658;2023-03-04T17:00:17;100938.82;;;4.65;46.66
22572;BME280;11452;53.368;14.658;2023-03-04T17:05:24;100940.72;;;4.76;47.20
22572;BME280;11452;53.368;14.658;2023-03-04T17:10:30;100945.60;;;4.75;46.97
22572;BME280;11452;53.368;14.658;2023-03-04T17:15:36;100943.00;;;4.73;46.97
22572;BME280;11452;53.368;14.658;2023-03-04T17:20:42;100953.00;;;4.64;47.11
22572;BME280;11452;53.368;14.658;2023-03-04T17:25:53;100957.33;;;4.50;47.16
22572;BME280;11452;53.368;14.658;2023-03-04T17:30:56;100957.88;;;4.30;47.45
22572;BME280;11452;53.368;14.658;2023-03-04T17:36:02;100955.04;;;4.22;47.65
22572;BME280;11452;53.368;14.658;2023-03-04T17:41:11;100965.62;;;4.22;47.65
22572;BME280;11452;53.368;14.658;2023-03-04T17:46:25;100957.80;;;4.17;47.62
22572;BME280;11452;53.368;14.658;2023-03-04T17:51:34;100957.80;;;4.17;47.62
22572;BME280;11452;53.368;14.658;2023-03-04T17:56:41;100963.62;;;4.13;47.77
22572;BME280;11452;53.368;14.658;2023-03-04T18:01:47;100970.30;;;4.10;47.76
22572;BME280;11452;53.368;14.658;2023-03-04T18:06:55;100970.00;;;4.06;47.64
22572;BME280;11452;53.368;14.658;2023-03-04T18:12:00;100971.16;;;3.95;47.83
22572;BME280;11452;53.368;14.658;2023-03-04T18:17:06;100961.77;;;3.83;48.00
22572;BME280;11452;53.368;14.658;2023-03-04T18:22:11;100952.31;;;3.73;48.00
22572;BME280;11452;53.368;14.658;2023-03-04T18:27:17;100957.32;;;3.67;47.72
22572;BME280;11452;53.368;14.658;2023-03-04T18:32:22;100957.32;;;3.67;47.72
22572;BME280;11452;53.368;14.658;2023-03-04T18:37:29;100965.80;;;3.62;47.87
22572;BME280;11452;53.368;14.658;2023-03-04T18:42:34;100985.27;;;3.58;48.03
22572;BME280;11452;53.368;14.658;2023-03-04T18:47:43;100961.83;;;3.44;47.80
22572;BME280;11452;53.368;14.658;2023-03-04T18:52:50;100961.44;;;3.42;47.91
22572;BME280;11452;53.368;14.658;2023-03-04T18:57:59;100958.25;;;3.47;47.91
22572;BME280;11452;53.368;14.658;2023-03-04T19:03:09;100954.39;;;3.42;47.90
22572;BME280;11452;53.368;14.658;2023-03-04T19:08:16;100961.12;;;3.36;47.87
22572;BME280;11452;53.368;14.658;2023-03-04T19:13:21;100958.23;;;3.29;47.93
22572;BME280;11452;53.368;14.658;2023-03-04T19:18:28;100957.13;;;3.19;48.03
22572;BME280;11452;53.368;14.658;2023-03-04T19:23:34;100951.63;;;3.10;48.44
22572;BME280;11452;53.368;14.658;2023-03-04T19:28:39;100962.57;;;3.12;48.58
22572;BME280;11452;53.368;14.658;2023-03-04T19:33:46;100960.47;;;3.07;48.79
22572;BME280;11452;53.368;14.658;2023-03-04T19:38:51;100963.27;;;3.00;48.89
22572;BME280;11452;53.368;14.658;2023-03-04T19:43:58;100956.02;;;2.90;49.04
22572;BME280;11452;53.368;14.658;2023-03-04T19:49:06;100956.61;;;2.82;49.59
22572;BME280;11452;53.368;14.658;2023-03-04T19:54:13;100949.41;;;2.69;49.73
22572;BME280;11452;53.368;14.658;2023-03-04T19:59:19;100954.69;;;2.69;49.93
22572;BME280;11452;53.368;14.658;2023-03-04T20:04:25;100957.05;;;2.61;50.37
22572;BME280;11452;53.368;14.658;2023-03-04T20:09:31;100949.20;;;2.59;50.58
22572;BME280;11452;53.368;14.658;2023-03-04T20:14:37;100953.09;;;2.61;50.45
22572;BME280;11452;53.368;14.658;2023-03-04T20:19:42;100943.75;;;2.44;50.92
22572;BME280;11452;53.368;14.658;2023-03-04T20:24:48;100945.07;;;2.44;50.96
22572;BME280;11452;53.368;14.658;2023-03-04T20:29:53;100939.71;;;2.49;51.07
22572;BME280;11452;53.368;14.658;2023-03-04T20:34:59;100939.41;;;2.42;51.31
22572;BME280;11452;53.368;14.658;2023-03-04T20:40:06;100942.58;;;2.38;51.50
22572;BME280;11452;53.368;14.658;2023-03-04T20:45:11;100938.25;;;2.34;51.74
22572;BME280;11452;53.368;14.658;2023-03-04T20:50:17;100932.87;;;2.40;51.58
22572;BME280;11452;53.368;14.658;2023-03-04T20:55:22;100937.99;;;2.24;52.17
22572;BME280;11452;53.368;14.658;2023-03-04T21:00:28;100930.53;;;2.24;52.14
22572;BME280;11452;53.368;14.658;2023-03-04T21:05:34;100931.64;;;2.12;52.29
22572;BME280;11452;53.368;14.658;2023-03-04T21:10:39;100929.22;;;2.01;52.72
22572;BME280;11452;53.368;14.658;2023-03-04T21:15:47;100918.25;;;2.00;52.52
22572;BME280;11452;53.368;14.658;2023-03-04T21:20:53;100919.67;;;1.94;52.79
22572;BME280;11452;53.368;14.658;2023-03-04T21:25:59;100918.42;;;1.90;53.06
22572;BME280;11452;53.368;14.658;2023-03-04T21:31:08;100916.00;;;1.79;53.65
22572;BME280;11452;53.368;14.658;2023-03-04T21:36:13;100905.16;;;1.70;53.97
22572;BME280;11452;53.368;14.658;2023-03-04T21:41:21;100903.56;;;1.86;53.88
22572;BME280;11452;53.368;14.658;2023-03-04T21:46:27;100905.02;;;1.80;54.12
22572;BME280;11452;53.368;14.658;2023-03-04T21:51:33;100896.78;;;1.72;54.27
22572;BME280;11452;53.368;14.658;2023-03-04T21:56:39;100896.27;;;1.78;54.33
22572;BME280;11452;53.368;14.658;2023-03-04T22:01:45;100886.99;;;1.81;54.28
22572;BME280;11452;53.368;14.658;2023-03-04T22:06:51;100892.38;;;1.73;54.54
22572;BME280;11452;53.368;14.658;2023-03-04T22:11:57;100881.84;;;1.73;54.69
22572;BME280;11452;53.368;14.658;2023-03-04T22:17:02;100877.87;;;1.74;54.71
22572;BME280;11452;53.368;14.658;2023-03-04T22:22:09;100871.69;;;1.77;54.61
22572;BME280;11452;53.368;14.658;2023-03-04T22:27:15;100871.66;;;1.79;54.69
22572;BME280;11452;53.368;14.658;2023-03-04T22:32:20;100868.23;;;1.73;54.59
22572;BME280;11452;53.368;14.658;2023-03-04T22:37:27;100856.48;;;1.67;54.63
22572;BME280;11452;53.368;14.658;2023-03-04T22:42:33;100853.77;;;1.72;54.72
22572;BME280;11452;53.368;14.658;2023-03-04T22:47:45;100847.44;;;1.58;55.11
22572;BME280;11452;53.368;14.658;2023-03-04T22:52:46;100840.41;;;1.59;55.20
22572;BME280;11452;53.368;14.658;2023-03-04T22:57:52;100831.88;;;1.68;55.40
22572;BME280;11452;53.368;14.658;2023-03-04T23:02:58;100823.59;;;1.88;55.41
22572;BME280;11452;53.368;14.658;2023-03-04T23:08:03;100813.05;;;1.88;55.21
22572;BME280;11452;53.368;14.658;2023-03-04T23:13:09;100823.17;;;1.87;55.32
22572;BME280;11452;53.368;14.658;2023-03-04T23:18:14;100817.88;;;1.89;55.44
22572;BME280;11452;53.368;14.658;2023-03-04T23:23:20;100814.71;;;1.94;55.60
22572;BME280;11452;53.368;14.658;2023-03-04T23:28:26;100813.45;;;1.91;55.59
22572;BME280;11452;53.368;14.658;2023-03-04T23:33:31;100816.37;;;1.99;55.74
22572;BME280;11452;53.368;14.658;2023-03-04T23:38:37;100813.79;;;1.96;55.63
22572;BME280;11452;53.368;14.658;2023-03-04T23:43:42;100800.50;;;2.02;55.71
22572;BME280;11452;53.368;14.658;2023-03-04T23:48:48;100811.17;;;2.17;55.67
22572;BME280;11452;53.368;14.658;2023-03-04T23:53:55;100799.06;;;2.07;55.41
22572;BME280;11452;53.368;14.658;2023-03-04T23:59:01;100797.39;;;2.24;55.43
